sensor_id;sensor_type;location;lat;lon;timestamp;temperature;humidity
14531;DHT22;7352;50.866;4.366;2022-11-20T00:01:50;6.30;99.90
14531;DHT22;7352;50.866;4.366;2022-11-20T00:04:19;6.30;99.90
14531;DHT22;7352;50.866;4.366;2022-11-20T00:06:46;6.40;99.90
14531;DHT22;7352;50.866;4.366;2022-11-20T00:09:14;6.60;99.90
14531;DHT22;7352;50.866;4.366;2022-11-20T00:11:41;6.70;99.90
14531;DHT22;7352;50.866;4.366;2022-11-20T00:14:09;6.50;99.90
14531;DHT22;7352;50.866;4.366;2022-11-20T00:16:36;6.60;99.90
14531;DHT22;7352;50.866;4.366;2022-11-20T00:19:05;6.50;99.90
14531;DHT22;7352;50.866;4.366;2022-11-20T00:21:32;6.50;99.90
14531;DHT22;7352;50.866;4.366;2022-11-20T00:23:59;6.70;99.90
14531;DHT22;7352;50.866;4.366;2022-11-20T00:26:28;6.60;99.90
14531;DHT22;7352;50.866;4.366;2022-11-20T00:29:00;6.50;99.90
14531;DHT22;7352;50.866;4.366;2022-11-20T00:31:29;6.50;99.90
14531;DHT22;7352;50.866;4.366;2022-11-20T00:33:56;6.40;99.90
14531;DHT22;7352;50.866;4.366;2022-11-20T00:36:26;6.40;99.90
14531;DHT22;7352;50.866;4.366;2022-11-20T00:38:56;6.30;99.90
14531;DHT22;7352;50.866;4.366;2022-11-20T00:41:24;6.50;99.90
14531;DHT22;7352;50.866;4.366;2022-11-20T00:43:52;6.40;99.90
14531;DHT22;7352;50.866;4.366;2022-11-20T00:46:22;6.30;99.90
14531;DHT22;7352;50.866;4.366;2022-11-20T00:48:49;6.30;99.90
14531;DHT22;7352;50.866;4.366;2022-11-20T00:51:18;6.40;99.90
14531;DHT22;7352;50.866;4.366;2022-11-20T00:53:47;6.50;99.90
14531;DHT22;7352;50.866;4.366;2022-11-20T00:56:15;6.40;99.90
14531;DHT22;7352;50.866;4.366;2022-11-20T00:58:44;6.30;99.90
14531;DHT22;7352;50.866;4.366;2022-11-20T01:01:17;6.40;99.90
14531;DHT22;7352;50.866;4.366;2022-11-20T01:03:46;6.50;99.90
14531;DHT22;7352;50.866;4.366;2022-11-20T01:06:17;6.50;99.90
14531;DHT22;7352;50.866;4.366;2022-11-20T01:08:49;6.70;99.90
14531;DHT22;7352;50.866;4.366;2022-11-20T01:11:18;6.70;99.90
14531;DHT22;7352;50.866;4.366;2022-11-20T01:13:47;6.60;99.90
14531;DHT22;7352;50.866;4.366;2022-11-20T01:16:17;6.60;99.90
14531;DHT22;7352;50.866;4.366;2022-11-20T01:18:46;6.90;99.90
14531;DHT22;7352;50.866;4.366;2022-11-20T01:21:15;6.90;99.90
14531;DHT22;7352;50.866;4.366;2022-11-20T01:23:44;6.70;99.90
14531;DHT22;7352;50.866;4.366;2022-11-20T01:26:15;6.70;99.90
14531;DHT22;7352;50.866;4.366;2022-11-20T01:28:44;6.90;99.90
14531;DHT22;7352;50.866;4.366;2022-11-20T01:31:13;6.80;99.90
14531;DHT22;7352;50.866;4.366;2022-11-20T01:33:42;6.80;99.90
14531;DHT22;7352;50.866;4.366;2022-11-20T01:36:12;6.70;99.90
14531;DHT22;7352;50.866;4.366;2022-11-20T01:38:40;6.70;99.90
14531;DHT22;7352;50.866;4.366;2022-11-20T01:41:08;6.60;99.90
14531;DHT22;7352;50.866;4.366;2022-11-20T01:43:36;6.90;99.90
14531;DHT22;7352;50.866;4.366;2022-11-20T01:46:20;6.90;99.90
14531;DHT22;7352;50.866;4.366;2022-11-20T01:48:52;6.80;99.90
14531;DHT22;7352;50.866;4.366;2022-11-20T01:51:25;6.90;99.90
14531;DHT22;7352;50.866;4.366;2022-11-20T01:53:54;6.80;99.90
14531;DHT22;7352;50.866;4.366;2022-11-20T01:56:23;6.90;99.90
14531;DHT22;7352;50.866;4.366;2022-11-20T01:58:54;7.00;99.90
14531;DHT22;7352;50.866;4.366;2022-11-20T02:01:24;6.90;99.90
14531;DHT22;7352;50.866;4.366;2022-11-20T02:03:51;7.00;99.90
14531;DHT22;7352;50.866;4.366;2022-11-20T02:06:24;7.10;99.90
14531;DHT22;7352;50.866;4.366;2022-11-20T02:08:51;7.10;99.90
14531;DHT22;7352;50.866;4.366;2022-11-20T02:11:19;6.90;99.90
14531;DHT22;7352;50.866;4.366;2022-11-20T02:13:46;6.90;99.90
14531;DHT22;7352;50.866;4.366;2022-11-20T02:16:16;6.80;99.90
14531;DHT22;7352;50.866;4.366;2022-11-20T02:18:45;6.80;99.90
14531;DHT22;7352;50.866;4.366;2022-11-20T02:21:22;6.70;99.90
14531;DHT22;7352;50.866;4.366;2022-11-20T02:24:01;6.80;99.90
14531;DHT22;7352;50.866;4.366;2022-11-20T02:26:31;6.80;99.90
14531;DHT22;7352;50.866;4.366;2022-11-20T02:29:00;6.60;99.90
14531;DHT22;7352;50.866;4.366;2022-11-20T02:31:28;6.50;99.90
14531;DHT22;7352;50.866;4.366;2022-11-20T02:33:56;6.60;99.90
14531;DHT22;7352;50.866;4.366;2022-11-20T02:36:25;6.80;99.90
14531;DHT22;7352;50.866;4.366;2022-11-20T02:38:53;6.90;99.90
14531;DHT22;7352;50.866;4.366;2022-11-20T02:41:22;6.70;99.90
14531;DHT22;7352;50.866;4.366;2022-11-20T02:43:56;6.60;99.90
14531;DHT22;7352;50.866;4.366;2022-11-20T02:46:23;6.50;99.90
14531;DHT22;7352;50.866;4.366;2022-11-20T02:48:50;6.30;99.90
14531;DHT22;7352;50.866;4.366;2022-11-20T02:51:17;6.40;99.90
14531;DHT22;7352;50.866;4.366;2022-11-20T02:53:44;6.30;99.90
14531;DHT22;7352;50.866;4.366;2022-11-20T02:56:19;6.40;99.90
14531;DHT22;7352;50.866;4.366;2022-11-20T02:58:47;6.50;99.90
14531;DHT22;7352;50.866;4.366;2022-11-20T03:01:14;6.50;99.90
14531;DHT22;7352;50.866;4.366;2022-11-20T03:03:41;6.40;99.90
14531;DHT22;7352;50.866;4.366;2022-11-20T03:06:09;6.50;99.90
14531;DHT22;7352;50.866;4.366;2022-11-20T03:08:36;6.60;99.90
14531;DHT22;7352;50.866;4.366;2022-11-20T03:11:05;6.70;99.90
14531;DHT22;7352;50.866;4.366;2022-11-20T03:13:32;6.60;99.90
14531;DHT22;7352;50.866;4.366;2022-11-20T03:16:07;6.70;99.90
14531;DHT22;7352;50.866;4.366;2022-11-20T03:18:34;6.70;99.90
14531;DHT22;7352;50.866;4.366;2022-11-20T03:21:01;6.50;99.90
14531;DHT22;7352;50.866;4.366;2022-11-20T03:23:30;6.60;99.90
14531;DHT22;7352;50.866;4.366;2022-11-20T03:26:11;6.80;99.90
14531;DHT22;7352;50.866;4.366;2022-11-20T03:28:38;6.70;99.90
14531;DHT22;7352;50.866;4.366;2022-11-20T03:31:08;6.70;99.90
14531;DHT22;7352;50.866;4.366;2022-11-20T03:33:35;6.60;99.90
14531;DHT22;7352;50.866;4.366;2022-11-20T03:36:03;6.70;99.90
14531;DHT22;7352;50.866;4.366;2022-11-20T03:38:32;6.70;99.90
14531;DHT22;7352;50.866;4.366;2022-11-20T03:41:00;6.70;99.90
14531;DHT22;7352;50.866;4.366;2022-11-20T03:43:27;6.70;99.90
14531;DHT22;7352;50.866;4.366;2022-11-20T03:45:54;6.60;99.90
14531;DHT22;7352;50.866;4.366;2022-11-20T03:48:23;6.50;99.90
14531;DHT22;7352;50.866;4.366;2022-11-20T03:50:50;6.60;99.90
14531;DHT22;7352;50.866;4.366;2022-11-20T03:53:17;6.70;99.90
14531;DHT22;7352;50.866;4.366;2022-11-20T03:55:51;6.90;99.90
14531;DHT22;7352;50.866;4.366;2022-11-20T03:58:19;6.80;99.90
14531;DHT22;7352;50.866;4.366;2022-11-20T04:00:46;6.90;99.90
14531;DHT22;7352;50.866;4.366;2022-11-20T04:03:18;6.90;99.90
14531;DHT22;7352;50.866;4.366;2022-11-20T04:05:49;7.10;99.90
14531;DHT22;7352;50.866;4.366;2022-11-20T04:08:17;6.80;99.90
14531;DHT22;7352;50.866;4.366;2022-11-20T04:10:43;6.90;99.90
14531;DHT22;7352;50.866;4.366;2022-11-20T04:13:11;6.80;99.90
14531;DHT22;7352;50.866;4.366;2022-11-20T04:15:38;7.00;99.90
14531;DHT22;7352;50.866;4.366;2022-11-20T04:18:05;7.00;99.90
14531;DHT22;7352;50.866;4.366;2022-11-20T04:20:33;7.00;99.90
14531;DHT22;7352;50.866;4.366;2022-11-20T04:23:02;7.10;99.90
14531;DHT22;7352;50.866;4.366;2022-11-20T04:25:28;7.00;99.90
14531;DHT22;7352;50.866;4.366;2022-11-20T04:27:55;6.90;99.90
14531;DHT22;7352;50.866;4.366;2022-11-20T04:30:22;6.90;99.90
14531;DHT22;7352;50.866;4.366;2022-11-20T04:32:49;7.10;99.90
14531;DHT22;7352;50.866;4.366;2022-11-20T04:35:17;7.20;99.90
14531;DHT22;7352;50.866;4.366;2022-11-20T04:37:44;7.10;99.90
14531;DHT22;7352;50.866;4.366;2022-11-20T04:40:13;7.00;99.90
14531;DHT22;7352;50.866;4.366;2022-11-20T04:42:40;7.00;99.90
14531;DHT22;7352;50.866;4.366;2022-11-20T04:45:07;7.10;99.90
14531;DHT22;7352;50.866;4.366;2022-11-20T04:47:34;7.10;99.90
14531;DHT22;7352;50.866;4.366;2022-11-20T04:50:01;7.10;99.90
14531;DHT22;7352;50.866;4.366;2022-11-20T04:52:29;7.20;99.90
14531;DHT22;7352;50.866;4.366;2022-11-20T04:54:56;7.10;99.90
14531;DHT22;7352;50.866;4.366;2022-11-20T04:57:24;6.90;99.90
14531;DHT22;7352;50.866;4.366;2022-11-20T04:59:51;6.90;99.90
14531;DHT22;7352;50.866;4.366;2022-11-20T05:02:18;7.00;99.90
14531;DHT22;7352;50.866;4.366;2022-11-20T05:04:45;7.20;99.90
14531;DHT22;7352;50.866;4.366;2022-11-20T05:07:12;7.30;99.90
14531;DHT22;7352;50.866;4.366;2022-11-20T05:09:39;7.20;99.90
14531;DHT22;7352;50.866;4.366;2022-11-20T05:12:07;7.20;99.90
14531;DHT22;7352;50.866;4.366;2022-11-20T05:14:35;7.30;99.90
14531;DHT22;7352;50.866;4.366;2022-11-20T05:17:02;7.30;99.90
14531;DHT22;7352;50.866;4.366;2022-11-20T05:19:29;7.40;99.90
14531;DHT22;7352;50.866;4.366;2022-11-20T05:21:56;7.60;99.90
14531;DHT22;7352;50.866;4.366;2022-11-20T05:24:23;7.40;99.90
14531;DHT22;7352;50.866;4.366;2022-11-20T05:26:50;7.40;99.90
14531;DHT22;7352;50.866;4.366;2022-11-20T05:29:17;7.50;99.90
14531;DHT22;7352;50.866;4.366;2022-11-20T05:31:45;7.40;99.90
14531;DHT22;7352;50.866;4.366;2022-11-20T05:34:12;7.40;99.90
14531;DHT22;7352;50.866;4.366;2022-11-20T05:36:39;7.40;99.90
14531;DHT22;7352;50.866;4.366;2022-11-20T05:39:06;7.40;99.90
14531;DHT22;7352;50.866;4.366;2022-11-20T05:41:33;7.60;99.90
14531;DHT22;7352;50.866;4.366;2022-11-20T05:44:00;7.60;99.90
14531;DHT22;7352;50.866;4.366;2022-11-20T05:46:27;7.50;99.90
14531;DHT22;7352;50.866;4.366;2022-11-20T05:48:56;7.70;99.90
14531;DHT22;7352;50.866;4.366;2022-11-20T05:51:24;7.70;99.90
14531;DHT22;7352;50.866;4.366;2022-11-20T05:53:52;7.50;99.90
14531;DHT22;7352;50.866;4.366;2022-11-20T05:56:20;7.30;99.90
14531;DHT22;7352;50.866;4.366;2022-11-20T05:58:48;7.30;99.90
14531;DHT22;7352;50.866;4.366;2022-11-20T06:01:17;7.30;99.90
14531;DHT22;7352;50.866;4.366;2022-11-20T06:03:45;7.40;99.90
14531;DHT22;7352;50.866;4.366;2022-11-20T06:06:14;7.20;99.90
14531;DHT22;7352;50.866;4.366;2022-11-20T06:08:42;7.20;99.90
14531;DHT22;7352;50.866;4.366;2022-11-20T06:11:10;7.20;99.90
14531;DHT22;7352;50.866;4.366;2022-11-20T06:13:38;7.10;99.90
14531;DHT22;7352;50.866;4.366;2022-11-20T06:16:06;7.30;99.90
14531;DHT22;7352;50.866;4.366;2022-11-20T06:18:33;7.20;99.90
14531;DHT22;7352;50.866;4.366;2022-11-20T06:21:02;7.30;99.90
14531;DHT22;7352;50.866;4.366;2022-11-20T06:23:32;7.40;99.90
14531;DHT22;7352;50.866;4.366;2022-11-20T06:26:02;7.30;99.90
14531;DHT22;7352;50.866;4.366;2022-11-20T06:28:29;7.30;99.90
14531;DHT22;7352;50.866;4.366;2022-11-20T06:30:56;7.30;99.90
14531;DHT22;7352;50.866;4.366;2022-11-20T06:33:23;7.40;99.90
14531;DHT22;7352;50.866;4.366;2022-11-20T06:35:50;7.40;99.90
14531;DHT22;7352;50.866;4.366;2022-11-20T06:38:17;7.50;99.90
14531;DHT22;7352;50.866;4.366;2022-11-20T06:40:45;7.40;99.90
14531;DHT22;7352;50.866;4.366;2022-11-20T06:43:12;7.50;99.90
14531;DHT22;7352;50.866;4.366;2022-11-20T06:45:39;7.50;99.90
14531;DHT22;7352;50.866;4.366;2022-11-20T06:48:06;7.50;99.90
14531;DHT22;7352;50.866;4.366;2022-11-20T06:50:33;7.50;99.90
14531;DHT22;7352;50.866;4.366;2022-11-20T06:53:01;7.50;99.90
14531;DHT22;7352;50.866;4.366;2022-11-20T06:55:29;7.60;99.90
14531;DHT22;7352;50.866;4.366;2022-11-20T06:57:58;7.60;99.90
14531;DHT22;7352;50.866;4.366;2022-11-20T07:00:25;7.60;99.90
14531;DHT22;7352;50.866;4.366;2022-11-20T07:02:52;7.60;99.90
14531;DHT22;7352;50.866;4.366;2022-11-20T07:05:20;7.70;99.90
14531;DHT22;7352;50.866;4.366;2022-11-20T07:07:47;7.70;99.90
14531;DHT22;7352;50.866;4.366;2022-11-20T07:10:14;7.50;99.90
14531;DHT22;7352;50.866;4.366;2022-11-20T07:12:41;7.50;99.90
14531;DHT22;7352;50.866;4.366;2022-11-20T07:15:10;7.80;99.90
14531;DHT22;7352;50.866;4.366;2022-11-20T07:17:36;7.90;99.90
14531;DHT22;7352;50.866;4.366;2022-11-20T07:20:04;8.10;99.90
14531;DHT22;7352;50.866;4.366;2022-11-20T07:22:31;8.10;99.90
14531;DHT22;7352;50.866;4.366;2022-11-20T07:24:58;7.90;99.90
14531;DHT22;7352;50.866;4.366;2022-11-20T07:27:25;7.90;99.90
14531;DHT22;7352;50.866;4.366;2022-11-20T07:29:52;7.80;99.90
14531;DHT22;7352;50.866;4.366;2022-11-20T07:32:21;7.90;99.90
14531;DHT22;7352;50.866;4.366;2022-11-20T07:34:48;8.10;99.90
14531;DHT22;7352;50.866;4.366;2022-11-20T07:37:15;8.10;99.90
14531;DHT22;7352;50.866;4.366;2022-11-20T07:39:42;8.20;99.90
14531;DHT22;7352;50.866;4.366;2022-11-20T07:42:10;8.40;99.90
14531;DHT22;7352;50.866;4.366;2022-11-20T07:44:38;8.40;99.90
14531;DHT22;7352;50.866;4.366;2022-11-20T07:47:05;8.40;99.90
14531;DHT22;7352;50.866;4.366;2022-11-20T07:49:33;8.40;99.90
14531;DHT22;7352;50.866;4.366;2022-11-20T07:52:00;8.30;99.90
14531;DHT22;7352;50.866;4.366;2022-11-20T07:54:28;8.40;99.90
14531;DHT22;7352;50.866;4.366;2022-11-20T07:56:55;8.50;99.90
14531;DHT22;7352;50.866;4.366;2022-11-20T07:59:23;8.50;99.90
14531;DHT22;7352;50.866;4.366;2022-11-20T08:01:50;8.50;99.90
14531;DHT22;7352;50.866;4.366;2022-11-20T08:04:17;8.40;99.90
14531;DHT22;7352;50.866;4.366;2022-11-20T08:06:45;8.50;99.90
14531;DHT22;7352;50.866;4.366;2022-11-20T08:09:12;8.40;99.90
14531;DHT22;7352;50.866;4.366;2022-11-20T08:11:39;8.30;99.90
14531;DHT22;7352;50.866;4.366;2022-11-20T08:14:23;8.30;99.90
14531;DHT22;7352;50.866;4.366;2022-11-20T08:16:52;8.40;99.90
14531;DHT22;7352;50.866;4.366;2022-11-20T08:19:19;8.30;99.90
14531;DHT22;7352;50.866;4.366;2022-11-20T08:21:47;8.40;99.90
14531;DHT22;7352;50.866;4.366;2022-11-20T08:24:15;8.30;99.90
14531;DHT22;7352;50.866;4.366;2022-11-20T08:26:42;8.40;99.90
14531;DHT22;7352;50.866;4.366;2022-11-20T08:29:09;8.60;99.90
14531;DHT22;7352;50.866;4.366;2022-11-20T08:31:36;8.70;99.90
14531;DHT22;7352;50.866;4.366;2022-11-20T08:34:02;8.60;99.90
14531;DHT22;7352;50.866;4.366;2022-11-20T08:36:33;8.50;99.90
14531;DHT22;7352;50.866;4.366;2022-11-20T08:39:02;8.70;99.90
14531;DHT22;7352;50.866;4.366;2022-11-20T08:41:30;8.70;99.90
14531;DHT22;7352;50.866;4.366;2022-11-20T08:44:00;8.80;99.90
14531;DHT22;7352;50.866;4.366;2022-11-20T08:46:30;8.80;99.90
14531;DHT22;7352;50.866;4.366;2022-11-20T08:48:58;8.80;99.90
14531;DHT22;7352;50.866;4.366;2022-11-20T08:51:26;8.70;99.90
14531;DHT22;7352;50.866;4.366;2022-11-20T08:53:55;8.70;99.90
14531;DHT22;7352;50.866;4.366;2022-11-20T08:56:24;8.70;99.90
14531;DHT22;7352;50.866;4.366;2022-11-20T08:58:51;8.70;99.90
14531;DHT22;7352;50.866;4.366;2022-11-20T09:01:20;8.80;99.90
14531;DHT22;7352;50.866;4.366;2022-11-20T09:03:50;8.60;99.90
14531;DHT22;7352;50.866;4.366;2022-11-20T09:06:17;8.70;99.90
14531;DHT22;7352;50.866;4.366;2022-11-20T09:08:44;8.90;99.90
14531;DHT22;7352;50.866;4.366;2022-11-20T09:11:16;9.00;99.90
14531;DHT22;7352;50.866;4.366;2022-11-20T09:13:53;9.00;99.90
14531;DHT22;7352;50.866;4.366;2022-11-20T09:16:32;9.00;99.90
14531;DHT22;7352;50.866;4.366;2022-11-20T09:19:00;9.00;99.90
14531;DHT22;7352;50.866;4.366;2022-11-20T09:21:34;9.00;99.90
14531;DHT22;7352;50.866;4.366;2022-11-20T09:24:11;9.00;99.90
14531;DHT22;7352;50.866;4.366;2022-11-20T09:26:41;9.10;99.90
14531;DHT22;7352;50.866;4.366;2022-11-20T09:29:09;9.10;99.90
14531;DHT22;7352;50.866;4.366;2022-11-20T09:31:37;9.30;99.90
14531;DHT22;7352;50.866;4.366;2022-11-20T09:34:04;9.40;99.90
14531;DHT22;7352;50.866;4.366;2022-11-20T09:36:31;9.50;99.90
14531;DHT22;7352;50.866;4.366;2022-11-20T09:38:58;9.40;99.90
14531;DHT22;7352;50.866;4.366;2022-11-20T09:47:26;9.80;99.90
14531;DHT22;7352;50.866;4.366;2022-11-20T09:50:07;9.80;99.90
14531;DHT22;7352;50.866;4.366;2022-11-20T09:52:48;9.90;99.90
14531;DHT22;7352;50.866;4.366;2022-11-20T09:55:20;9.90;99.90
14531;DHT22;7352;50.866;4.366;2022-11-20T09:57:51;10.00;99.90
14531;DHT22;7352;50.866;4.366;2022-11-20T10:00:20;10.20;99.90
14531;DHT22;7352;50.866;4.366;2022-11-20T10:02:52;10.10;99.90
14531;DHT22;7352;50.866;4.366;2022-11-20T10:05:25;10.20;99.90
14531;DHT22;7352;50.866;4.366;2022-11-20T10:08:08;10.30;99.90
14531;DHT22;7352;50.866;4.366;2022-11-20T10:10:42;10.30;99.90
14531;DHT22;7352;50.866;4.366;2022-11-20T10:13:20;10.40;99.90
14531;DHT22;7352;50.866;4.366;2022-11-20T10:16:03;10.40;99.90
14531;DHT22;7352;50.866;4.366;2022-11-20T10:19:02;10.50;99.90
14531;DHT22;7352;50.866;4.366;2022-11-20T10:21:41;10.30;99.90
14531;DHT22;7352;50.866;4.366;2022-11-20T10:24:41;10.20;99.90
14531;DHT22;7352;50.866;4.366;2022-11-20T10:27:21;10.40;99.90
14531;DHT22;7352;50.866;4.366;2022-11-20T10:30:00;10.50;99.90
14531;DHT22;7352;50.866;4.366;2022-11-20T10:32:33;10.50;99.90
14531;DHT22;7352;50.866;4.366;2022-11-20T10:35:06;10.50;99.90
14531;DHT22;7352;50.866;4.366;2022-11-20T10:37:37;10.60;99.90
14531;DHT22;7352;50.866;4.366;2022-11-20T10:40:20;10.70;99.90
14531;DHT22;7352;50.866;4.366;2022-11-20T10:42:52;10.70;99.90
14531;DHT22;7352;50.866;4.366;2022-11-20T10:45:35;10.70;99.90
14531;DHT22;7352;50.866;4.366;2022-11-20T10:48:12;10.70;99.90
14531;DHT22;7352;50.866;4.366;2022-11-20T10:50:57;10.80;99.90
14531;DHT22;7352;50.866;4.366;2022-11-20T10:53:40;10.80;99.90
14531;DHT22;7352;50.866;4.366;2022-11-20T10:56:17;10.70;99.90
14531;DHT22;7352;50.866;4.366;2022-11-20T10:58:54;10.70;99.90
14531;DHT22;7352;50.866;4.366;2022-11-20T11:01:23;10.60;99.90
14531;DHT22;7352;50.866;4.366;2022-11-20T11:03:55;10.60;99.90
14531;DHT22;7352;50.866;4.366;2022-11-20T11:06:25;10.60;99.90
14531;DHT22;7352;50.866;4.366;2022-11-20T11:08:58;10.60;99.90
14531;DHT22;7352;50.866;4.366;2022-11-20T11:11:28;10.60;99.90
14531;DHT22;7352;50.866;4.366;2022-11-20T11:14:04;10.50;99.90
14531;DHT22;7352;50.866;4.366;2022-11-20T11:16:32;10.50;99.90
14531;DHT22;7352;50.866;4.366;2022-11-20T11:19:06;10.70;99.90
14531;DHT22;7352;50.866;4.366;2022-11-20T11:21:33;10.60;99.90
14531;DHT22;7352;50.866;4.366;2022-11-20T11:24:03;10.80;99.90
14531;DHT22;7352;50.866;4.366;2022-11-20T11:26:35;10.70;99.90
14531;DHT22;7352;50.866;4.366;2022-11-20T11:29:03;10.50;99.90
14531;DHT22;7352;50.866;4.366;2022-11-20T11:31:32;10.60;99.90
14531;DHT22;7352;50.866;4.366;2022-11-20T11:34:07;10.70;99.90
14531;DHT22;7352;50.866;4.366;2022-11-20T11:36:35;10.90;99.90
14531;DHT22;7352;50.866;4.366;2022-11-20T11:39:03;10.90;99.90
14531;DHT22;7352;50.866;4.366;2022-11-20T11:41:33;10.90;99.90
14531;DHT22;7352;50.866;4.366;2022-11-20T11:44:12;11.10;99.90
14531;DHT22;7352;50.866;4.366;2022-11-20T11:46:58;11.00;99.90
14531;DHT22;7352;50.866;4.366;2022-11-20T11:49:27;10.90;99.90
14531;DHT22;7352;50.866;4.366;2022-11-20T11:52:02;10.90;99.90
14531;DHT22;7352;50.866;4.366;2022-11-20T11:54:36;10.90;99.90
14531;DHT22;7352;50.866;4.366;2022-11-20T11:57:10;10.90;99.90
14531;DHT22;7352;50.866;4.366;2022-11-20T11:59:54;10.90;99.90
14531;DHT22;7352;50.866;4.366;2022-11-20T12:02:36;10.90;99.90
14531;DHT22;7352;50.866;4.366;2022-11-20T12:05:14;10.90;99.90
14531;DHT22;7352;50.866;4.366;2022-11-20T12:07:46;10.90;99.90
14531;DHT22;7352;50.866;4.366;2022-11-20T12:10:28;11.00;99.90
14531;DHT22;7352;50.866;4.366;2022-11-20T12:13:04;11.00;99.90
14531;DHT22;7352;50.866;4.366;2022-11-20T12:15:36;10.90;99.90
14531;DHT22;7352;50.866;4.366;2022-11-20T12:18:08;10.70;99.90
14531;DHT22;7352;50.866;4.366;2022-11-20T12:20:48;10.70;99.90
14531;DHT22;7352;50.866;4.366;2022-11-20T12:23:26;10.40;99.90
14531;DHT22;7352;50.866;4.366;2022-11-20T12:25:58;10.40;99.90
14531;DHT22;7352;50.866;4.366;2022-11-20T12:28:48;10.20;99.90
14531;DHT22;7352;50.866;4.366;2022-11-20T12:31:39;10.20;99.90
14531;DHT22;7352;50.866;4.366;2022-11-20T12:34:29;10.20;99.90
14531;DHT22;7352;50.866;4.366;2022-11-20T12:37:12;10.10;99.90
14531;DHT22;7352;50.866;4.366;2022-11-20T12:39:42;10.10;99.90
14531;DHT22;7352;50.866;4.366;2022-11-20T12:42:47;10.10;99.90
14531;DHT22;7352;50.866;4.366;2022-11-20T12:45:57;9.90;99.90
14531;DHT22;7352;50.866;4.366;2022-11-20T12:48:59;10.00;99.90
14531;DHT22;7352;50.866;4.366;2022-11-20T12:51:39;10.00;99.90
14531;DHT22;7352;50.866;4.366;2022-11-20T12:54:26;10.00;99.90
14531;DHT22;7352;50.866;4.366;2022-11-20T12:57:18;10.10;99.90
14531;DHT22;7352;50.866;4.366;2022-11-20T13:00:08;10.20;99.90
14531;DHT22;7352;50.866;4.366;2022-11-20T13:05:37;10.20;99.90
14531;DHT22;7352;50.866;4.366;2022-11-20T13:08:18;10.20;99.90
14531;DHT22;7352;50.866;4.366;2022-11-20T13:10:51;10.20;99.90
14531;DHT22;7352;50.866;4.366;2022-11-20T13:13:25;10.10;99.90
14531;DHT22;7352;50.866;4.366;2022-11-20T13:16:05;10.10;99.90
14531;DHT22;7352;50.866;4.366;2022-11-20T13:18:38;10.10;99.90
14531;DHT22;7352;50.866;4.366;2022-11-20T13:21:18;10.00;99.90
14531;DHT22;7352;50.866;4.366;2022-11-20T13:23:50;9.90;99.90
14531;DHT22;7352;50.866;4.366;2022-11-20T13:26:33;9.90;99.90
14531;DHT22;7352;50.866;4.366;2022-11-20T13:29:04;9.90;99.90
14531;DHT22;7352;50.866;4.366;2022-11-20T13:31:36;9.80;99.90
14531;DHT22;7352;50.866;4.366;2022-11-20T13:34:12;9.80;99.90
14531;DHT22;7352;50.866;4.366;2022-11-20T13:36:49;9.80;99.90
14531;DHT22;7352;50.866;4.366;2022-11-20T13:39:24;9.80;99.90
14531;DHT22;7352;50.866;4.366;2022-11-20T13:41:56;9.90;99.90
14531;DHT22;7352;50.866;4.366;2022-11-20T13:44:27;9.90;99.90
14531;DHT22;7352;50.866;4.366;2022-11-20T13:46:55;9.90;99.90
14531;DHT22;7352;50.866;4.366;2022-11-20T13:49:32;9.80;99.90
14531;DHT22;7352;50.866;4.366;2022-11-20T13:52:27;9.70;99.90
14531;DHT22;7352;50.866;4.366;2022-11-20T13:55:12;9.80;99.90
14531;DHT22;7352;50.866;4.366;2022-11-20T13:58:12;9.80;99.90
14531;DHT22;7352;50.866;4.366;2022-11-20T14:00:47;10.00;99.90
14531;DHT22;7352;50.866;4.366;2022-11-20T14:03:25;10.00;99.90
14531;DHT22;7352;50.866;4.366;2022-11-20T14:05:59;10.00;99.90
14531;DHT22;7352;50.866;4.366;2022-11-20T14:08:37;10.10;99.90
14531;DHT22;7352;50.866;4.366;2022-11-20T14:11:14;10.00;99.90
14531;DHT22;7352;50.866;4.366;2022-11-20T14:13:58;9.90;99.90
14531;DHT22;7352;50.866;4.366;2022-11-20T14:16:27;10.00;99.90
14531;DHT22;7352;50.866;4.366;2022-11-20T14:18:56;9.90;99.90
14531;DHT22;7352;50.866;4.366;2022-11-20T14:21:45;9.80;99.90
14531;DHT22;7352;50.866;4.366;2022-11-20T14:24:23;9.80;99.90
14531;DHT22;7352;50.866;4.366;2022-11-20T14:26:57;9.80;99.90
14531;DHT22;7352;50.866;4.366;2022-11-20T14:29:29;9.80;99.90
14531;DHT22;7352;50.866;4.366;2022-11-20T14:31:58;9.80;99.90
14531;DHT22;7352;50.866;4.366;2022-11-20T14:34:28;9.80;99.90
14531;DHT22;7352;50.866;4.366;2022-11-20T14:36:58;9.70;99.90
14531;DHT22;7352;50.866;4.366;2022-11-20T14:39:32;9.80;99.90
14531;DHT22;7352;50.866;4.366;2022-11-20T14:42:02;9.80;99.90
14531;DHT22;7352;50.866;4.366;2022-11-20T14:44:33;9.90;99.90
14531;DHT22;7352;50.866;4.366;2022-11-20T14:47:02;9.90;99.90
14531;DHT22;7352;50.866;4.366;2022-11-20T14:49:31;9.80;99.90
14531;DHT22;7352;50.866;4.366;2022-11-20T14:52:00;9.70;99.90
14531;DHT22;7352;50.866;4.366;2022-11-20T14:54:28;9.80;99.90
14531;DHT22;7352;50.866;4.366;2022-11-20T14:56:57;9.80;99.90
14531;DHT22;7352;50.866;4.366;2022-11-20T14:59:25;9.90;99.90
14531;DHT22;7352;50.866;4.366;2022-11-20T15:02:02;10.00;99.90
14531;DHT22;7352;50.866;4.366;2022-11-20T15:04:43;9.90;99.90
14531;DHT22;7352;50.866;4.366;2022-11-20T15:07:10;9.90;99.90
14531;DHT22;7352;50.866;4.366;2022-11-20T15:09:39;10.00;99.90
14531;DHT22;7352;50.866;4.366;2022-11-20T15:12:37;10.00;99.90
14531;DHT22;7352;50.866;4.366;2022-11-20T15:15:23;10.10;99.90
14531;DHT22;7352;50.866;4.366;2022-11-20T15:17:54;10.10;99.90
14531;DHT22;7352;50.866;4.366;2022-11-20T15:20:25;10.10;99.90
14531;DHT22;7352;50.866;4.366;2022-11-20T15:22:53;10.10;99.90
14531;DHT22;7352;50.866;4.366;2022-11-20T15:25:20;10.10;99.90
14531;DHT22;7352;50.866;4.366;2022-11-20T15:27:51;9.90;99.90
14531;DHT22;7352;50.866;4.366;2022-11-20T15:30:20;10.00;99.90
14531;DHT22;7352;50.866;4.366;2022-11-20T15:32:48;10.10;99.90
14531;DHT22;7352;50.866;4.366;2022-11-20T15:35:18;10.20;99.90
14531;DHT22;7352;50.866;4.366;2022-11-20T15:37:45;10.20;99.90
14531;DHT22;7352;50.866;4.366;2022-11-20T15:40:14;10.10;99.90
14531;DHT22;7352;50.866;4.366;2022-11-20T15:42:41;10.20;99.90
14531;DHT22;7352;50.866;4.366;2022-11-20T15:45:29;10.20;99.90
14531;DHT22;7352;50.866;4.366;2022-11-20T15:47:59;10.20;99.90
14531;DHT22;7352;50.866;4.366;2022-11-20T15:50:34;10.20;99.90
14531;DHT22;7352;50.866;4.366;2022-11-20T15:53:02;10.20;99.90
14531;DHT22;7352;50.866;4.366;2022-11-20T15:55:30;10.20;99.90
14531;DHT22;7352;50.866;4.366;2022-11-20T15:57:57;10.20;99.90
14531;DHT22;7352;50.866;4.366;2022-11-20T16:00:24;10.20;99.90
14531;DHT22;7352;50.866;4.366;2022-11-20T16:02:51;10.10;99.90
14531;DHT22;7352;50.866;4.366;2022-11-20T16:05:18;10.10;99.90
14531;DHT22;7352;50.866;4.366;2022-11-20T16:07:52;10.20;99.90
14531;DHT22;7352;50.866;4.366;2022-11-20T16:10:18;10.30;99.90
14531;DHT22;7352;50.866;4.366;2022-11-20T16:12:46;10.30;99.90
14531;DHT22;7352;50.866;4.366;2022-11-20T16:15:31;10.40;99.90
14531;DHT22;7352;50.866;4.366;2022-11-20T16:18:16;10.40;99.90
14531;DHT22;7352;50.866;4.366;2022-11-20T16:20:44;10.40;99.90
14531;DHT22;7352;50.866;4.366;2022-11-20T16:23:13;10.20;99.90
14531;DHT22;7352;50.866;4.366;2022-11-20T16:25:41;10.20;99.90
14531;DHT22;7352;50.866;4.366;2022-11-20T16:28:10;10.20;99.90
14531;DHT22;7352;50.866;4.366;2022-11-20T16:30:39;10.10;99.90
14531;DHT22;7352;50.866;4.366;2022-11-20T16:33:10;10.10;99.90